Terminal Aerodrome Forecast
Issued by NWS

Home | Current Version | Previous Version | Text Only | Print | Product List | Glossary On
Versions: 1 2 3 4 5 6 7 8 9 10 11 12
000
FTUS44 KTSA 220500
TAFFYV
TAF
KFYV 220520Z 2206/2306 19008KT P6SM FEW250
     FM221500 20012G20KT P6SM FEW250
     FM230100 17006KT P6SM SKC=

USA.gov is the U.S. government's official web portal to all federal, state and local government web resources and services.